createdAt,value
2022-08-16T00:00:22.586Z,958.92
2022-08-16T00:01:08.905Z,958.93
2022-08-16T00:02:13.060Z,958.91
2022-08-16T00:03:13.417Z,958.94
2022-08-16T00:04:09.535Z,958.93
2022-08-16T00:05:08.742Z,958.93
2022-08-16T00:06:10.121Z,958.93
2022-08-16T00:07:08.660Z,958.94
2022-08-16T00:08:08.614Z,958.93
2022-08-16T00:09:10.861Z,958.91
2022-08-16T00:10:08.533Z,958.94
2022-08-16T00:11:08.499Z,958.91
2022-08-16T00:12:08.466Z,958.95
2022-08-16T00:13:08.413Z,958.92
2022-08-16T00:14:08.650Z,958.93
2022-08-16T00:15:11.629Z,958.96
2022-08-16T00:17:05.505Z,958.94
2022-08-16T00:17:18.498Z,958.96
2022-08-16T00:18:08.204Z,958.95
2022-08-16T00:19:08.166Z,958.99
2022-08-16T00:20:08.138Z,958.97
2022-08-16T00:21:08.083Z,958.97
2022-08-16T00:22:13.388Z,959.01
2022-08-16T00:23:08.003Z,959.02
2022-08-16T00:24:11.491Z,959.00
2022-08-16T00:25:07.938Z,959.00
2022-08-16T00:26:35.446Z,959.01
2022-08-16T00:27:07.855Z,958.98
2022-08-16T00:28:07.792Z,958.99
2022-08-16T00:29:07.784Z,958.99
2022-08-16T00:30:19.079Z,958.94
2022-08-16T00:31:07.670Z,958.95
2022-08-16T00:32:07.630Z,958.98
2022-08-16T00:33:07.590Z,959.01
2022-08-16T00:34:07.545Z,959.03
2022-08-16T00:35:13.293Z,959.03
2022-08-16T00:36:07.464Z,959.00
2022-08-16T00:37:07.420Z,959.02
2022-08-16T00:38:40.301Z,959.00
2022-08-16T00:39:07.340Z,959.01
2022-08-16T00:40:07.355Z,959.06
2022-08-16T00:41:07.271Z,959.05
2022-08-16T00:42:10.219Z,959.12
2022-08-16T00:43:11.977Z,959.11
2022-08-16T00:44:07.146Z,959.09
2022-08-16T00:45:08.615Z,959.08
2022-08-16T00:46:32.875Z,959.06
2022-08-16T00:47:07.011Z,959.05
2022-08-16T00:48:28.711Z,959.06
2022-08-16T00:49:06.929Z,959.04
2022-08-16T00:50:08.172Z,959.07
2022-08-16T00:51:06.843Z,959.06
2022-08-16T00:52:29.151Z,959.05
2022-08-16T00:53:06.760Z,959.04
2022-08-16T00:54:06.719Z,959.06
2022-08-16T00:55:08.373Z,959.08
2022-08-16T00:56:06.654Z,959.06
2022-08-16T00:57:06.601Z,959.03
2022-08-16T00:58:13.181Z,959.04
2022-08-16T00:59:06.518Z,959.09
2022-08-16T01:00:06.473Z,959.05
2022-08-16T01:01:08.377Z,959.06
2022-08-16T01:02:30.072Z,959.06
2022-08-16T01:03:06.350Z,959.10
2022-08-16T01:04:06.305Z,959.08
2022-08-16T01:05:10.802Z,959.08
2022-08-16T01:06:39.617Z,959.09
2022-08-16T01:07:06.648Z,959.06
2022-08-16T01:08:35.220Z,959.07
2022-08-16T01:09:06.107Z,959.04
2022-08-16T01:10:15.883Z,959.03
2022-08-16T01:11:06.505Z,959.03
2022-08-16T01:12:08.751Z,959.01
2022-08-16T01:13:05.936Z,959.00
2022-08-16T01:14:05.894Z,959.00
2022-08-16T01:15:05.856Z,958.98
2022-08-16T01:16:05.821Z,959.00
2022-08-16T01:17:08.443Z,958.98
2022-08-16T01:18:05.941Z,959.01
2022-08-16T01:19:05.689Z,959.01
2022-08-16T01:20:23.364Z,959.01
2022-08-16T01:21:05.650Z,959.08
2022-08-16T01:22:47.536Z,959.06
2022-08-16T01:23:08.774Z,959.04
2022-08-16T01:24:05.477Z,959.08
2022-08-16T01:25:05.438Z,959.07
2022-08-16T01:26:34.232Z,959.10
2022-08-16T01:27:05.364Z,959.11
2022-08-16T01:28:05.311Z,959.09
2022-08-16T01:29:05.276Z,959.13
2022-08-16T01:30:05.227Z,959.17
2022-08-16T01:31:05.191Z,959.16
2022-08-16T01:32:05.166Z,959.18
2022-08-16T01:33:15.474Z,959.20
2022-08-16T01:34:07.094Z,959.17
2022-08-16T01:35:05.023Z,959.15
2022-08-16T01:36:11.582Z,959.15
2022-08-16T01:37:04.943Z,959.16
2022-08-16T01:38:04.982Z,959.16
2022-08-16T01:39:04.856Z,959.16
2022-08-16T01:40:07.323Z,959.15
2022-08-16T01:41:04.773Z,959.18
2022-08-16T01:42:07.806Z,959.18
2022-08-16T01:43:04.691Z,959.20
2022-08-16T01:44:04.660Z,959.18
2022-08-16T01:45:04.606Z,959.21
2022-08-16T01:46:31.243Z,959.21
2022-08-16T01:47:04.528Z,959.21
2022-08-16T01:48:04.481Z,959.18
2022-08-16T01:49:04.453Z,959.17
2022-08-16T01:50:42.964Z,959.20
2022-08-16T01:51:09.116Z,959.22
2022-08-16T01:52:04.313Z,959.18
2022-08-16T01:53:04.274Z,959.17
2022-08-16T01:54:04.258Z,959.18
2022-08-16T01:55:04.191Z,959.16
2022-08-16T01:56:04.146Z,959.17
2022-08-16T01:57:04.114Z,959.16
2022-08-16T01:58:04.064Z,959.14
2022-08-16T01:59:04.027Z,959.14
2022-08-16T02:00:04.004Z,959.13
2022-08-16T02:01:04.022Z,959.12
2022-08-16T02:02:03.942Z,959.13
2022-08-16T02:03:03.854Z,959.13
2022-08-16T02:04:10.741Z,959.11
2022-08-16T02:05:03.821Z,959.12
2022-08-16T02:06:03.759Z,959.11
2022-08-16T02:07:03.699Z,959.09
2022-08-16T02:08:03.649Z,959.07
2022-08-16T02:09:05.336Z,959.06
2022-08-16T02:10:03.574Z,959.04
2022-08-16T02:11:03.527Z,959.00
2022-08-16T02:12:49.541Z,959.01
2022-08-16T02:13:03.839Z,958.99
2022-08-16T02:14:03.657Z,958.99
2022-08-16T02:15:03.359Z,959.01
2022-08-16T02:16:03.313Z,959.02
2022-08-16T02:17:03.275Z,958.99
2022-08-16T02:18:03.270Z,959.05
2022-08-16T02:19:03.191Z,959.03
2022-08-16T02:20:03.149Z,959.07
2022-08-16T02:21:03.107Z,959.05
2022-08-16T02:22:09.322Z,959.09
2022-08-16T02:23:05.720Z,959.07
2022-08-16T02:24:03.005Z,959.04
2022-08-16T02:25:02.974Z,959.06
2022-08-16T02:26:02.898Z,959.09
2022-08-16T02:27:02.857Z,959.03
2022-08-16T02:28:02.822Z,959.03
2022-08-16T02:29:02.776Z,959.04
2022-08-16T02:30:05.172Z,959.04
2022-08-16T02:31:02.691Z,958.99
2022-08-16T02:32:49.147Z,958.98
2022-08-16T02:33:03.414Z,958.97
2022-08-16T02:34:06.435Z,958.97
2022-08-16T02:35:02.525Z,958.98
2022-08-16T02:36:03.042Z,958.97
2022-08-16T02:37:02.458Z,958.99
2022-08-16T02:38:08.880Z,959.01
2022-08-16T02:39:02.359Z,959.01
2022-08-16T02:40:02.698Z,958.98
2022-08-16T02:41:02.275Z,958.98
2022-08-16T02:42:02.244Z,958.93
2022-08-16T02:43:02.805Z,958.97
2022-08-16T02:44:02.145Z,959.00
2022-08-16T02:45:02.105Z,958.94
2022-08-16T02:46:02.065Z,958.97
2022-08-16T02:47:02.498Z,958.97
2022-08-16T02:48:28.860Z,958.95
2022-08-16T02:49:02.099Z,958.95
2022-08-16T02:50:54.815Z,958.94
2022-08-16T02:51:06.669Z,958.95
2022-08-16T02:52:01.809Z,958.93
2022-08-16T02:53:01.770Z,958.96
2022-08-16T02:54:01.736Z,958.93
2022-08-16T02:55:01.689Z,958.95
2022-08-16T02:56:01.669Z,958.97
2022-08-16T02:57:01.609Z,958.91
2022-08-16T02:58:01.566Z,958.95
2022-08-16T02:59:01.527Z,958.92
2022-08-16T03:00:32.148Z,958.92
2022-08-16T03:01:01.470Z,958.92
2022-08-16T03:02:01.442Z,958.91
2022-08-16T03:03:01.359Z,958.91
2022-08-16T03:04:28.864Z,958.90
2022-08-16T03:05:01.662Z,958.85
2022-08-16T03:06:01.237Z,958.82
2022-08-16T03:07:01.201Z,958.81
2022-08-16T03:08:01.143Z,958.78
2022-08-16T03:09:01.377Z,958.73
2022-08-16T03:10:01.099Z,958.73
2022-08-16T03:11:01.020Z,958.73
2022-08-16T03:12:01.090Z,958.72
2022-08-16T03:13:01.310Z,958.70
2022-08-16T03:14:00.895Z,958.67
2022-08-16T03:15:00.854Z,958.70
2022-08-16T03:16:00.815Z,958.67
2022-08-16T03:17:01.916Z,958.66
2022-08-16T03:18:00.728Z,958.67
2022-08-16T03:19:00.707Z,958.65
2022-08-16T03:20:02.764Z,958.64
2022-08-16T03:21:00.599Z,958.64
2022-08-16T03:22:00.559Z,958.65
2022-08-16T03:23:01.872Z,958.65
2022-08-16T03:24:00.503Z,958.64
2022-08-16T03:25:00.929Z,958.60
2022-08-16T03:26:00.420Z,958.59
2022-08-16T03:27:00.352Z,958.56
2022-08-16T03:28:00.310Z,958.53
2022-08-16T03:29:00.267Z,958.56
2022-08-16T03:30:00.231Z,958.55
2022-08-16T03:31:00.182Z,958.55
2022-08-16T03:32:01.423Z,958.56
2022-08-16T03:33:00.096Z,958.55
2022-08-16T03:34:00.055Z,958.53
2022-08-16T03:35:00.014Z,958.54
2022-08-16T03:36:29.689Z,958.52
2022-08-16T03:36:59.949Z,958.56
2022-08-16T03:38:03.027Z,958.53
2022-08-16T03:38:59.848Z,958.56
2022-08-16T03:40:03.181Z,958.55
2022-08-16T03:40:59.763Z,958.56
2022-08-16T03:42:00.436Z,958.54
2022-08-16T03:43:18.663Z,958.54
2022-08-16T03:43:59.634Z,958.56
2022-08-16T03:45:03.243Z,958.54
2022-08-16T03:45:59.550Z,958.53
2022-08-16T03:46:59.509Z,958.49
2022-08-16T03:47:59.914Z,958.54
2022-08-16T03:48:59.439Z,958.51
2022-08-16T03:49:59.382Z,958.46
2022-08-16T03:51:00.009Z,958.47
2022-08-16T03:51:59.301Z,958.48
2022-08-16T03:53:04.251Z,958.53
2022-08-16T03:54:00.960Z,958.52
2022-08-16T03:54:59.668Z,958.52
2022-08-16T03:55:59.129Z,958.55
2022-08-16T03:56:59.107Z,958.51
2022-08-16T03:57:59.040Z,958.52
2022-08-16T03:58:59.016Z,958.54
2022-08-16T03:59:58.962Z,958.53
2022-08-16T04:00:59.386Z,958.53
2022-08-16T04:01:58.876Z,958.53
2022-08-16T04:02:58.835Z,958.52
2022-08-16T04:03:58.791Z,958.50
2022-08-16T04:04:58.769Z,958.51
2022-08-16T04:05:58.710Z,958.50
2022-08-16T04:06:58.668Z,958.50
2022-08-16T04:07:58.628Z,958.49
2022-08-16T04:08:58.582Z,958.49
2022-08-16T04:09:58.543Z,958.51
2022-08-16T04:10:58.515Z,958.50
2022-08-16T04:11:58.455Z,958.53
2022-08-16T04:13:04.061Z,958.52
2022-08-16T04:14:00.745Z,958.55
2022-08-16T04:14:58.441Z,958.55
2022-08-16T04:15:58.306Z,958.55
2022-08-16T04:16:58.245Z,958.49
2022-08-16T04:17:58.201Z,958.51
2022-08-16T04:19:02.776Z,958.52
2022-08-16T04:19:59.894Z,958.47
2022-08-16T04:20:58.113Z,958.45
2022-08-16T04:21:58.057Z,958.48
2022-08-16T04:22:58.325Z,958.49
2022-08-16T04:23:57.951Z,958.50
2022-08-16T04:24:59.153Z,958.50
2022-08-16T04:25:57.864Z,958.51
2022-08-16T04:26:57.853Z,958.53
2022-08-16T04:28:28.592Z,958.52
2022-08-16T04:29:23.860Z,958.50
2022-08-16T04:30:02.988Z,958.52
2022-08-16T04:30:57.651Z,958.48
2022-08-16T04:31:58.222Z,958.49
2022-08-16T04:32:57.584Z,958.53
2022-08-16T04:33:57.532Z,958.53
2022-08-16T04:34:57.483Z,958.53
2022-08-16T04:35:57.449Z,958.53
2022-08-16T04:36:57.419Z,958.58
2022-08-16T04:37:57.360Z,958.55
2022-08-16T04:38:57.320Z,958.56
2022-08-16T04:39:57.541Z,958.56
2022-08-16T04:40:57.269Z,958.60
2022-08-16T04:41:57.385Z,958.57
2022-08-16T04:42:57.176Z,958.61
2022-08-16T04:43:57.105Z,958.60
2022-08-16T04:44:57.066Z,958.60
2022-08-16T04:46:00.724Z,958.54
2022-08-16T04:47:02.865Z,958.58
2022-08-16T04:47:56.940Z,958.57
2022-08-16T04:48:56.913Z,958.61
2022-08-16T04:49:56.854Z,958.62
2022-08-16T04:50:56.812Z,958.65
2022-08-16T04:51:56.774Z,958.66
2022-08-16T04:52:56.727Z,958.65
2022-08-16T04:53:56.683Z,958.61
2022-08-16T04:54:56.652Z,958.61
2022-08-16T04:55:56.621Z,958.59
2022-08-16T04:56:56.558Z,958.61
2022-08-16T04:57:56.518Z,958.57
2022-08-16T04:58:57.533Z,958.61
2022-08-16T04:59:56.431Z,958.63
2022-08-16T05:00:56.390Z,958.61
2022-08-16T05:01:58.486Z,958.64
2022-08-16T05:02:58.977Z,958.58
2022-08-16T05:04:00.419Z,958.57
2022-08-16T05:04:56.227Z,958.53
2022-08-16T05:05:59.924Z,958.55
2022-08-16T05:06:56.155Z,958.55
2022-08-16T05:07:58.474Z,958.59
2022-08-16T05:08:56.532Z,958.58
2022-08-16T05:09:56.012Z,958.59
2022-08-16T05:10:59.978Z,958.63
2022-08-16T05:11:57.479Z,958.61
2022-08-16T05:12:55.882Z,958.61
2022-08-16T05:13:55.840Z,958.63
2022-08-16T05:15:02.480Z,958.61
2022-08-16T05:15:55.760Z,958.59
2022-08-16T05:16:55.738Z,958.58
2022-08-16T05:17:58.906Z,958.57
2022-08-16T05:18:56.761Z,958.54
2022-08-16T05:19:57.692Z,958.55
2022-08-16T05:21:09.742Z,958.57
2022-08-16T05:21:55.503Z,958.53
2022-08-16T05:22:55.477Z,958.50
2022-08-16T05:24:00.122Z,958.53
2022-08-16T05:24:55.401Z,958.57
2022-08-16T05:25:55.338Z,958.55
2022-08-16T05:26:55.325Z,958.54
2022-08-16T05:27:55.249Z,958.54
2022-08-16T05:28:55.955Z,958.54
2022-08-16T05:29:59.298Z,958.53
2022-08-16T05:30:55.125Z,958.55
2022-08-16T05:31:55.083Z,958.54
2022-08-16T05:32:55.054Z,958.56
2022-08-16T05:33:54.997Z,958.58
2022-08-16T05:34:54.978Z,958.57
2022-08-16T05:35:55.988Z,958.58
2022-08-16T05:36:54.876Z,958.60
2022-08-16T05:37:54.834Z,958.56
2022-08-16T05:38:54.787Z,958.56
2022-08-16T05:39:55.339Z,958.56
2022-08-16T05:40:59.626Z,958.52
2022-08-16T05:41:54.661Z,958.56
2022-08-16T05:42:55.547Z,958.52
2022-08-16T05:43:59.199Z,958.59
2022-08-16T05:44:54.535Z,958.55
2022-08-16T05:45:54.505Z,958.61
2022-08-16T05:46:54.852Z,958.65
2022-08-16T05:47:59.420Z,958.64
2022-08-16T05:48:55.038Z,958.63
2022-08-16T05:49:54.328Z,958.66
2022-08-16T05:50:54.284Z,958.66
2022-08-16T05:51:54.246Z,958.69
2022-08-16T05:52:54.223Z,958.66
2022-08-16T05:53:54.157Z,958.65
2022-08-16T05:54:58.532Z,958.67
2022-08-16T05:55:54.073Z,958.69
2022-08-16T05:56:54.038Z,958.70
2022-08-16T05:57:53.996Z,958.72
2022-08-16T05:58:53.960Z,958.69
2022-08-16T06:00:00.259Z,958.75
2022-08-16T06:03:47.314Z,958.72
2022-08-16T06:04:46.918Z,958.72
2022-08-16T06:05:47.118Z,958.75
2022-08-16T06:06:55.767Z,958.71
2022-08-16T06:07:58.550Z,958.78
2022-08-16T06:08:46.753Z,958.78
2022-08-16T06:09:46.939Z,958.80
2022-08-16T06:11:03.070Z,958.80
2022-08-16T06:11:46.623Z,958.83
2022-08-16T06:12:47.068Z,958.80
2022-08-16T06:13:46.551Z,958.84
2022-08-16T06:14:54.482Z,958.87
2022-08-16T06:15:46.476Z,958.83
2022-08-16T06:16:50.745Z,958.80
2022-08-16T06:17:46.370Z,958.82
2022-08-16T06:18:46.395Z,958.77
2022-08-16T06:19:46.298Z,958.80
2022-08-16T06:20:55.348Z,958.76
2022-08-16T06:21:46.203Z,958.83
2022-08-16T06:22:47.691Z,958.83
2022-08-16T06:23:46.125Z,958.84
2022-08-16T06:24:54.671Z,958.82
2022-08-16T06:25:53.434Z,958.81
2022-08-16T06:26:58.270Z,958.84
2022-08-16T06:27:57.085Z,958.86
2022-08-16T06:28:46.105Z,958.82
2022-08-16T06:29:50.088Z,958.76
2022-08-16T06:30:46.073Z,958.78
2022-08-16T06:31:49.199Z,958.81
2022-08-16T06:32:48.601Z,958.80
2022-08-16T06:33:45.717Z,958.83
2022-08-16T06:34:57.547Z,958.84
2022-08-16T06:35:45.634Z,958.84
2022-08-16T06:36:45.806Z,958.86
2022-08-16T06:37:51.248Z,958.84
2022-08-16T06:38:55.818Z,958.83
2022-08-16T06:39:49.521Z,958.85
2022-08-16T06:40:49.198Z,958.87
2022-08-16T06:41:45.376Z,958.88
2022-08-16T06:42:47.693Z,958.82
2022-08-16T06:43:45.301Z,958.87
2022-08-16T06:44:53.032Z,958.88
2022-08-16T06:45:45.464Z,958.89
2022-08-16T06:46:50.593Z,958.89
2022-08-16T06:47:54.102Z,958.86
2022-08-16T06:48:51.080Z,958.86
2022-08-16T06:49:52.645Z,958.86
2022-08-16T06:50:45.017Z,958.84
2022-08-16T06:51:48.193Z,958.86
2022-08-16T06:53:17.157Z,958.86
2022-08-16T06:53:44.884Z,958.86
2022-08-16T06:54:49.791Z,958.80
2022-08-16T06:55:44.928Z,958.85
2022-08-16T06:56:44.784Z,958.87
2022-08-16T06:57:51.806Z,958.81
2022-08-16T06:58:45.043Z,958.79
2022-08-16T06:59:52.496Z,958.77
2022-08-16T07:00:44.624Z,958.76
2022-08-16T07:01:54.560Z,958.76
2022-08-16T07:02:51.465Z,958.78
2022-08-16T07:03:55.566Z,958.79
2022-08-16T07:04:44.428Z,958.80
2022-08-16T07:05:44.551Z,958.79
2022-08-16T07:06:45.026Z,958.79
2022-08-16T07:07:44.392Z,958.80
2022-08-16T07:08:44.296Z,958.82
2022-08-16T07:09:44.234Z,958.86
2022-08-16T07:10:44.479Z,958.87
2022-08-16T07:11:45.634Z,958.87
2022-08-16T07:12:47.299Z,958.90
2022-08-16T07:14:00.568Z,958.90
2022-08-16T07:14:44.286Z,958.89
2022-08-16T07:15:50.156Z,958.88
2022-08-16T07:16:43.941Z,958.90
2022-08-16T07:17:44.161Z,958.91
2022-08-16T07:18:59.271Z,958.93
2022-08-16T07:20:03.991Z,958.93
2022-08-16T07:20:47.774Z,958.93
2022-08-16T07:21:50.965Z,958.93
2022-08-16T07:22:43.702Z,958.96
2022-08-16T07:23:43.654Z,958.92
2022-08-16T07:24:45.917Z,958.90
2022-08-16T07:25:44.911Z,958.88
2022-08-16T07:26:48.774Z,958.89
2022-08-16T07:27:43.501Z,958.92
2022-08-16T07:28:43.639Z,958.90
2022-08-16T07:29:43.419Z,958.89
2022-08-16T07:30:46.495Z,958.94
2022-08-16T07:31:43.343Z,958.90
2022-08-16T07:32:43.449Z,958.95
2022-08-16T07:33:52.028Z,958.93
2022-08-16T07:34:48.466Z,958.97
2022-08-16T07:35:44.011Z,959.01
2022-08-16T07:36:45.138Z,958.96
2022-08-16T07:37:43.097Z,958.99
2022-08-16T07:38:44.342Z,958.97
2022-08-16T07:39:43.651Z,958.98
2022-08-16T07:41:00.825Z,958.98
2022-08-16T07:41:42.939Z,958.98
2022-08-16T07:42:42.915Z,958.96
2022-08-16T07:43:43.280Z,958.96
2022-08-16T07:44:50.499Z,958.96
2022-08-16T07:45:43.244Z,958.97
2022-08-16T07:46:42.736Z,958.95
2022-08-16T07:47:42.950Z,958.97
2022-08-16T07:48:42.661Z,958.99
2022-08-16T07:49:52.935Z,959.03
2022-08-16T07:50:55.870Z,959.01
2022-08-16T07:51:42.602Z,959.04
2022-08-16T07:52:42.573Z,959.05
2022-08-16T07:53:43.819Z,959.07
2022-08-16T07:54:45.736Z,959.03
2022-08-16T07:55:47.810Z,959.08
2022-08-16T07:56:42.344Z,959.08
2022-08-16T07:57:58.096Z,959.09
2022-08-16T07:58:43.329Z,959.06
2022-08-16T07:59:45.896Z,959.05
2022-08-16T08:00:43.086Z,959.06
2022-08-16T08:01:42.227Z,959.07
2022-08-16T08:02:42.182Z,959.11
2022-08-16T08:03:47.577Z,959.12
2022-08-16T08:04:42.244Z,959.10
2022-08-16T08:05:42.014Z,959.09
2022-08-16T08:06:42.065Z,959.10
2022-08-16T08:07:45.172Z,959.08
2022-08-16T08:08:51.328Z,959.04
2022-08-16T08:09:43.542Z,959.06
2022-08-16T08:10:41.935Z,959.08
2022-08-16T08:12:00.748Z,959.07
2022-08-16T08:12:41.753Z,959.12
2022-08-16T08:13:42.991Z,959.15
2022-08-16T08:14:41.634Z,959.20
2022-08-16T08:15:52.395Z,959.20
2022-08-16T08:16:45.258Z,959.23
2022-08-16T08:17:42.123Z,959.24
2022-08-16T08:18:41.487Z,959.28
2022-08-16T08:19:41.434Z,959.28
2022-08-16T08:20:41.477Z,959.27
2022-08-16T08:21:59.239Z,959.26
2022-08-16T08:22:41.373Z,959.30
2022-08-16T08:23:42.406Z,959.29
2022-08-16T08:24:44.156Z,959.35
2022-08-16T08:25:54.789Z,959.37
2022-08-16T08:26:42.927Z,959.34
2022-08-16T08:27:41.133Z,959.32
2022-08-16T08:28:41.247Z,959.31
2022-08-16T08:29:42.571Z,959.31
2022-08-16T08:30:52.415Z,959.31
2022-08-16T08:31:40.973Z,959.33
2022-08-16T08:33:01.822Z,959.31
2022-08-16T08:33:46.698Z,959.34
2022-08-16T08:34:40.854Z,959.34
2022-08-16T08:35:41.051Z,959.31
2022-08-16T08:36:40.786Z,959.30
2022-08-16T08:37:55.653Z,959.32
2022-08-16T08:38:45.984Z,959.28
2022-08-16T08:39:54.957Z,959.33
2022-08-16T08:40:40.666Z,959.30
2022-08-16T08:41:40.670Z,959.30
2022-08-16T08:42:40.747Z,959.33
2022-08-16T08:43:41.649Z,959.34
2022-08-16T08:44:40.494Z,959.38
2022-08-16T08:45:48.277Z,959.41
2022-08-16T08:47:00.648Z,959.43
2022-08-16T08:47:40.386Z,959.42
2022-08-16T08:48:43.750Z,959.44
2022-08-16T08:49:50.311Z,959.43
2022-08-16T08:50:40.378Z,959.54
2022-08-16T08:51:41.271Z,959.52
2022-08-16T08:52:40.763Z,959.58
2022-08-16T08:53:40.144Z,959.62
2022-08-16T08:54:40.253Z,959.64
2022-08-16T08:55:40.152Z,959.67
2022-08-16T08:56:45.331Z,959.71
2022-08-16T08:57:40.630Z,959.69
2022-08-16T08:58:40.076Z,959.69
2022-08-16T08:59:40.597Z,959.71
2022-08-16T09:00:51.280Z,959.68
2022-08-16T09:01:42.649Z,959.65
2022-08-16T09:02:39.822Z,959.67
2022-08-16T09:03:40.071Z,959.64
2022-08-16T09:04:39.757Z,959.66
2022-08-16T09:05:39.791Z,959.71
2022-08-16T09:06:43.776Z,959.69
2022-08-16T09:08:00.424Z,959.71
2022-08-16T09:08:39.894Z,959.73
2022-08-16T09:09:40.973Z,959.70
2022-08-16T09:10:40.940Z,959.74
2022-08-16T09:11:40.929Z,959.67
2022-08-16T09:12:39.472Z,959.66
2022-08-16T09:13:47.373Z,959.70
2022-08-16T09:14:39.416Z,959.70
2022-08-16T09:15:39.384Z,959.76
2022-08-16T09:17:02.934Z,959.72
2022-08-16T09:17:49.030Z,959.75
2022-08-16T09:18:39.697Z,959.79
2022-08-16T09:19:40.602Z,959.81
2022-08-16T09:20:58.644Z,959.82
2022-08-16T09:21:39.320Z,959.82
2022-08-16T09:22:39.172Z,959.83
2022-08-16T09:23:39.346Z,959.81
2022-08-16T09:24:47.168Z,959.82
2022-08-16T09:25:39.052Z,959.84
2022-08-16T09:26:45.954Z,959.79
2022-08-16T09:27:46.687Z,959.77
2022-08-16T09:29:17.034Z,959.80
2022-08-16T09:29:45.457Z,959.79
2022-08-16T09:30:43.890Z,959.72
2022-08-16T09:31:41.199Z,959.72
2022-08-16T09:32:40.019Z,959.69
2022-08-16T09:33:39.531Z,959.70
2022-08-16T09:34:38.805Z,959.74
2022-08-16T09:35:39.337Z,959.76
2022-08-16T09:36:46.000Z,959.77
2022-08-16T09:37:38.693Z,959.76
2022-08-16T09:38:38.829Z,959.76
2022-08-16T09:39:41.558Z,959.77
2022-08-16T09:40:43.204Z,959.73
2022-08-16T09:41:38.581Z,959.70
2022-08-16T09:42:55.910Z,959.67
2022-08-16T09:43:59.816Z,959.67
2022-08-16T09:45:11.741Z,959.68
2022-08-16T09:45:38.466Z,959.65
2022-08-16T09:46:48.632Z,959.67
2022-08-16T09:47:57.399Z,959.65
2022-08-16T09:48:44.663Z,959.67
2022-08-16T09:49:40.790Z,959.65
2022-08-16T09:50:39.714Z,959.65
2022-08-16T09:51:38.304Z,959.63
2022-08-16T09:52:40.511Z,959.66
2022-08-16T09:53:38.250Z,959.71
2022-08-16T09:54:38.451Z,959.70
2022-08-16T09:55:44.314Z,959.71
2022-08-16T09:56:39.274Z,959.77
2022-08-16T09:57:38.146Z,959.70
2022-08-16T09:59:05.771Z,959.73
2022-08-16T09:59:41.878Z,959.71
2022-08-16T10:00:42.399Z,959.79
2022-08-16T10:01:38.285Z,959.75
2022-08-16T10:02:53.156Z,959.78
2022-08-16T10:03:38.044Z,959.79
2022-08-16T10:04:53.254Z,959.73
2022-08-16T10:05:37.946Z,959.72
2022-08-16T10:06:38.113Z,959.71
2022-08-16T10:07:44.753Z,959.71
2022-08-16T10:10:18.930Z,959.69
2022-08-16T10:11:24.810Z,959.73
2022-08-16T10:12:19.415Z,959.73
2022-08-16T10:13:16.774Z,959.69
2022-08-16T10:14:16.540Z,959.76
2022-08-16T10:15:17.048Z,959.74
2022-08-16T10:16:16.502Z,959.78
2022-08-16T10:17:16.464Z,959.73
2022-08-16T10:19:01.475Z,959.72
2022-08-16T10:19:19.245Z,959.74
2022-08-16T10:20:18.790Z,959.75
2022-08-16T10:21:16.376Z,959.75
2022-08-16T10:22:16.332Z,959.76
2022-08-16T10:23:17.067Z,959.75
2022-08-16T10:24:28.644Z,959.76
2022-08-16T10:27:17.537Z,959.75
2022-08-16T10:27:17.977Z,959.73
2022-08-16T10:27:25.833Z,959.77
2022-08-16T10:28:29.169Z,959.73
2022-08-16T10:29:20.003Z,959.70
2022-08-16T10:30:26.194Z,959.70
2022-08-16T10:31:16.870Z,959.67
2022-08-16T10:32:21.018Z,959.70
2022-08-16T10:33:16.057Z,959.69
2022-08-16T10:34:31.615Z,959.68
2022-08-16T10:35:15.997Z,959.68
2022-08-16T10:36:38.786Z,959.64
2022-08-16T10:37:15.949Z,959.65
2022-08-16T10:38:27.580Z,959.67
2022-08-16T10:39:15.909Z,959.64
2022-08-16T10:40:29.106Z,959.63
2022-08-16T10:41:16.843Z,959.65
2022-08-16T10:42:15.817Z,959.67
2022-08-16T10:43:18.295Z,959.66
2022-08-16T10:44:17.646Z,959.63
2022-08-16T10:45:15.745Z,959.66
2022-08-16T10:46:39.396Z,959.67
2022-08-16T10:47:15.700Z,959.67
2022-08-16T10:48:27.793Z,959.64
2022-08-16T10:49:18.113Z,959.67
2022-08-16T10:50:19.711Z,959.70
2022-08-16T10:51:15.603Z,959.73
2022-08-16T10:52:19.015Z,959.67
2022-08-16T10:53:15.549Z,959.68
2022-08-16T10:54:29.543Z,959.70
2022-08-16T10:56:52.654Z,959.71
2022-08-16T10:57:15.449Z,959.67
2022-08-16T10:58:16.745Z,959.70
2022-08-16T10:59:38.355Z,959.70
2022-08-16T11:00:21.273Z,959.69
2022-08-16T11:01:43.728Z,959.71
2022-08-16T11:02:58.930Z,959.67
2022-08-16T11:03:45.694Z,959.68
2022-08-16T11:05:15.327Z,959.68
2022-08-16T11:06:15.245Z,959.64
2022-08-16T11:07:45.610Z,959.67
2022-08-16T11:08:16.328Z,959.66
2022-08-16T11:09:25.796Z,959.69
2022-08-16T11:11:05.467Z,959.64
2022-08-16T11:11:19.452Z,959.68
2022-08-16T11:12:15.127Z,959.71
2022-08-16T11:14:15.036Z,959.67
2022-08-16T11:15:16.894Z,959.70
2022-08-16T11:17:14.983Z,959.70
2022-08-16T11:19:04.824Z,959.66
2022-08-16T11:19:15.332Z,959.65
2022-08-16T11:21:29.010Z,959.62
2022-08-16T11:22:38.561Z,959.58
2022-08-16T11:23:14.838Z,959.59
2022-08-16T11:24:41.540Z,959.59
2022-08-16T11:26:03.869Z,959.53
2022-08-16T11:26:23.390Z,959.56
2022-08-16T11:27:24.145Z,959.57
2022-08-16T11:29:11.890Z,959.54
2022-08-16T11:29:15.133Z,959.47
2022-08-16T11:30:20.027Z,959.47
2022-08-16T11:31:14.640Z,959.45
2022-08-16T11:32:14.613Z,959.42
2022-08-16T11:33:14.586Z,959.43
2022-08-16T11:34:14.579Z,959.40
2022-08-16T11:35:16.153Z,959.41
2022-08-16T11:36:29.707Z,959.36
2022-08-16T11:37:27.217Z,959.34
2022-08-16T11:38:46.233Z,959.34
2022-08-16T11:39:14.449Z,959.36
2022-08-16T11:40:14.433Z,959.34
2022-08-16T11:41:14.399Z,959.32
2022-08-16T11:42:23.870Z,959.31
2022-08-16T11:43:16.697Z,959.35
2022-08-16T11:44:20.194Z,959.34
2022-08-16T11:45:14.328Z,959.30
2022-08-16T11:46:43.104Z,959.29
2022-08-16T11:47:14.260Z,959.29
2022-08-16T11:48:14.240Z,959.22
2022-08-16T11:49:14.365Z,959.19
2022-08-16T11:50:14.195Z,959.16
2022-08-16T11:51:14.171Z,959.16
2022-08-16T11:52:14.160Z,959.14
2022-08-16T11:53:14.122Z,959.20
2022-08-16T11:54:21.807Z,959.15
2022-08-16T11:55:14.078Z,959.15
2022-08-16T11:56:14.881Z,959.12
2022-08-16T11:57:14.034Z,959.16
2022-08-16T11:58:14.420Z,959.14
2022-08-16T11:59:13.990Z,959.17
2022-08-16T12:00:33.539Z,959.18
2022-08-16T12:01:13.960Z,959.18
2022-08-16T12:02:31.564Z,959.21
2022-08-16T12:03:13.896Z,959.22
2022-08-16T12:04:13.925Z,959.25
2022-08-16T12:05:13.849Z,959.24
2022-08-16T12:06:30.342Z,959.19
2022-08-16T12:07:13.802Z,959.16
2022-08-16T12:08:13.794Z,959.13
2022-08-16T12:09:13.754Z,959.12
2022-08-16T12:10:13.729Z,959.11
2022-08-16T12:11:13.710Z,959.14
2022-08-16T12:12:13.685Z,959.11
2022-08-16T12:13:13.668Z,959.12
2022-08-16T12:14:13.656Z,959.10
2022-08-16T12:15:13.612Z,959.05
2022-08-16T12:16:13.592Z,959.06
2022-08-16T12:17:13.568Z,959.08
2022-08-16T12:18:13.543Z,959.09
2022-08-16T12:19:13.623Z,959.08
2022-08-16T12:20:18.621Z,959.08
2022-08-16T12:21:13.473Z,959.06
2022-08-16T12:22:19.086Z,959.03
2022-08-16T12:23:13.428Z,959.00
2022-08-16T12:24:13.405Z,959.03
2022-08-16T12:25:13.383Z,959.01
2022-08-16T12:26:13.380Z,959.01
2022-08-16T12:27:13.336Z,958.98
2022-08-16T12:28:13.315Z,959.03
2022-08-16T12:29:13.294Z,958.99
2022-08-16T12:30:21.397Z,959.02
2022-08-16T12:31:13.239Z,959.02
2022-08-16T12:32:38.137Z,959.05
2022-08-16T12:33:13.192Z,959.06
2022-08-16T12:34:19.813Z,958.98
2022-08-16T12:35:13.149Z,959.02
2022-08-16T12:36:13.357Z,959.01
2022-08-16T12:37:13.097Z,958.98